Time;durP1;ratioP1;P1;durP2;ratioP2;P2;SDS_P1;SDS_P2;PMS_P1;PMS_P2;Temp;Humidity;BMP_temperature;BMP_pressure;BME280_temperature;BME280_humidity;BME280_pressure;Samples;Min_cycle;Max_cycle;Signal;HPM_P1;HPM_P2
2021/11/03 00:00:45;;;;;;;0.10;0.10;;;7.10;99.90;;;;;;5093730;28;20043;-68
2021/11/03 00:03:29;;;;;;;0.00;0.00;;;7.10;99.90;;;;;;5093512;28;20043;-68
2021/11/03 00:06:18;;;;;;;0.73;0.35;;;7.10;99.90;;;;;;5093489;28;20059;-68
2021/11/03 00:09:04;;;;;;;0.60;0.60;;;7.20;99.90;;;;;;5093762;28;20035;-68
2021/11/03 00:11:49;;;;;;;0.52;0.52;;;7.20;99.90;;;;;;5094586;28;20066;-68
2021/11/03 00:14:33;;;;;;;0.00;0.00;;;7.20;99.90;;;;;;5093474;28;20557;-68
2021/11/03 00:17:18;;;;;;;0.00;0.00;;;7.20;99.90;;;;;;5093363;28;20081;-68
2021/11/03 00:20:04;;;;;;;0.20;0.20;;;7.10;99.90;;;;;;5093950;28;20071;-68
2021/11/03 00:22:48;;;;;;;0.10;0.10;;;7.10;99.90;;;;;;5094122;28;20103;-68
2021/11/03 00:25:37;;;;;;;0.00;0.00;;;7.20;99.90;;;;;;5093093;28;20051;-68
2021/11/03 00:28:22;;;;;;;0.00;0.00;;;7.20;99.90;;;;;;5079437;28;20031;-68
2021/11/03 00:31:06;;;;;;;0.63;0.63;;;7.20;99.90;;;;;;5093986;28;20051;-68
2021/11/03 00:33:51;;;;;;;0.10;0.10;;;7.20;99.90;;;;;;5094013;28;20111;-68
2021/11/03 00:36:35;;;;;;;0.00;0.00;;;7.10;99.90;;;;;;5092822;28;20101;-68
2021/11/03 00:39:22;;;;;;;0.05;0.05;;;7.20;99.90;;;;;;5093704;28;20173;-69
2021/11/03 00:42:07;;;;;;;0.00;0.00;;;7.20;99.90;;;;;;5078723;28;20062;-68
2021/11/03 00:44:51;;;;;;;0.00;0.00;;;7.20;99.90;;;;;;5093599;28;20038;-69
2021/11/03 00:47:36;;;;;;;0.20;0.20;;;7.20;99.90;;;;;;5093784;28;20089;-69
2021/11/03 00:50:22;;;;;;;0.55;0.47;;;7.20;99.90;;;;;;5093751;28;20089;-69
2021/11/03 00:53:07;;;;;;;0.60;0.60;;;7.30;99.90;;;;;;5093826;28;20120;-69
2021/11/03 00:55:51;;;;;;;0.00;0.00;;;7.30;99.90;;;;;;5078345;28;20051;-69
2021/11/03 00:58:36;;;;;;;0.47;0.47;;;7.20;99.90;;;;;;5092631;28;20596;-69
2021/11/03 01:01:21;;;;;;;2.53;1.17;;;7.10;99.90;;;;;;5093655;28;20463;-69
2021/11/03 01:04:06;;;;;;;0.93;0.85;;;7.00;99.90;;;;;;5093212;28;20047;-69
2021/11/03 01:06:51;;;;;;;0.10;0.10;;;7.00;99.90;;;;;;5093473;28;20093;-69
2021/11/03 01:09:35;;;;;;;0.70;0.70;;;7.10;99.90;;;;;;5092441;28;20093;-70
2021/11/03 01:12:19;;;;;;;0.30;0.30;;;7.00;99.90;;;;;;5093463;28;20039;-69
2021/11/03 01:15:10;;;;;;;0.00;0.00;;;7.00;99.90;;;;;;5092212;28;20443;-69
2021/11/03 01:17:56;;;;;;;0.10;0.10;;;7.00;99.90;;;;;;5092141;28;20112;-69
2021/11/03 01:20:41;;;;;;;0.00;0.00;;;6.90;99.90;;;;;;5093034;28;20547;-70
2021/11/03 01:23:28;;;;;;;0.00;0.00;;;6.90;99.90;;;;;;5092875;28;20093;-70
2021/11/03 01:26:12;;;;;;;0.00;0.00;;;6.90;99.90;;;;;;5092055;28;20039;-70
2021/11/03 01:28:57;;;;;;;0.00;0.00;;;6.90;99.90;;;;;;5092494;28;20046;-70
2021/11/03 01:31:42;;;;;;;0.00;0.00;;;6.80;99.90;;;;;;5091784;28;20392;-70
2021/11/03 01:34:26;;;;;;;0.25;0.25;;;6.80;99.90;;;;;;5092363;28;20140;-69
2021/11/03 01:37:11;;;;;;;0.47;0.47;;;6.80;99.90;;;;;;5091488;28;20111;-69
2021/11/03 01:39:55;;;;;;;0.52;0.52;;;6.90;99.90;;;;;;5092259;28;20047;-69
2021/11/03 01:42:41;;;;;;;0.10;0.10;;;6.90;99.90;;;;;;5091742;28;20115;-69
2021/11/03 01:45:27;;;;;;;0.00;0.00;;;7.00;99.90;;;;;;5092715;28;20092;-69
2021/11/03 01:48:11;;;;;;;0.10;0.10;;;7.00;99.90;;;;;;5091602;28;20124;-69
2021/11/03 01:50:56;;;;;;;0.00;0.00;;;6.90;99.90;;;;;;5091831;28;20252;-69
2021/11/03 01:53:41;;;;;;;0.00;0.00;;;6.90;99.90;;;;;;5106349;28;20545;-70
2021/11/03 01:56:27;;;;;;;0.00;0.00;;;6.90;99.90;;;;;;5092787;28;20062;-69
2021/11/03 01:59:31;;;;;;;0.75;0.60;;;7.00;99.90;;;;;;5091575;28;20081;-70
2021/11/03 02:02:20;;;;;;;0.10;0.10;;;6.90;99.90;;;;;;5091635;28;20396;-70
2021/11/03 02:05:08;;;;;;;0.05;0.05;;;7.00;99.90;;;;;;5091512;28;20562;-69
2021/11/03 02:07:53;;;;;;;0.30;0.30;;;7.10;99.90;;;;;;5091596;28;20121;-70
2021/11/03 02:10:38;;;;;;;13.90;1.65;;;7.20;99.90;;;;;;5091912;28;20048;-70
2021/11/03 02:13:23;;;;;;;0.10;0.10;;;7.30;99.90;;;;;;5091302;28;20085;-70
2021/11/03 02:16:11;;;;;;;0.08;0.08;;;7.40;99.90;;;;;;5091778;28;20039;-70
2021/11/03 02:18:56;;;;;;;0.35;0.35;;;7.40;99.90;;;;;;5092555;28;20439;-70
2021/11/03 02:22:13;;;;;;;0.10;0.10;;;7.40;99.90;;;;;;5096558;28;20087;-70
2021/11/03 02:25:15;;;;;;;0.00;0.00;;;7.40;99.90;;;;;;5095697;28;20035;-70
2021/11/03 02:28:02;;;;;;;0.55;0.55;;;7.50;99.90;;;;;;5096513;28;20556;-70
2021/11/03 02:30:46;;;;;;;0.10;0.10;;;7.50;99.90;;;;;;5095508;28;20491;-70
2021/11/03 02:33:35;;;;;;;0.10;0.10;;;7.50;99.90;;;;;;5095403;28;20035;-70
2021/11/03 02:36:19;;;;;;;0.32;0.32;;;7.60;99.90;;;;;;5096358;28;20043;-70
2021/11/03 02:39:07;;;;;;;0.63;0.30;;;7.70;99.90;;;;;;5095200;28;20607;-70
2021/11/03 02:41:54;;;;;;;0.00;0.00;;;7.70;99.90;;;;;;5095664;28;20162;-70
2021/11/03 02:44:41;;;;;;;0.00;0.00;;;7.70;99.90;;;;;;5094989;28;20507;-70
2021/11/03 02:47:26;;;;;;;1.20;1.00;;;7.70;99.90;;;;;;5095015;28;20028;-70
2021/11/03 02:50:13;;;;;;;0.03;0.03;;;7.70;99.90;;;;;;5096030;28;20127;-70
2021/11/03 02:52:57;;;;;;;0.10;0.10;;;7.60;99.90;;;;;;5095749;28;20043;-70
2021/11/03 02:55:42;;;;;;;0.00;0.00;;;7.50;99.90;;;;;;5095000;28;20040;-70
2021/11/03 02:58:26;;;;;;;0.28;0.28;;;7.50;99.90;;;;;;5094748;28;20101;-70
2021/11/03 03:01:33;;;;;;;0.30;0.30;;;7.50;99.90;;;;;;5096081;28;20035;-70
2021/11/03 03:04:28;;;;;;;0.25;0.25;;;7.60;99.90;;;;;;5094512;28;20042;-70
2021/11/03 03:07:14;;;;;;;0.10;0.10;;;7.50;99.90;;;;;;5094900;28;20396;-70
2021/11/03 03:09:59;;;;;;;0.10;0.10;;;7.50;99.90;;;;;;5094645;28;20101;-70
2021/11/03 03:12:44;;;;;;;0.47;0.47;;;7.50;99.90;;;;;;5094648;28;20101;-70
2021/11/03 03:15:28;;;;;;;0.10;0.10;;;7.50;99.90;;;;;;5095825;28;20043;-70
2021/11/03 03:18:12;;;;;;;0.17;0.17;;;7.50;99.90;;;;;;5095343;28;20043;-70
2021/11/03 03:20:56;;;;;;;0.77;0.63;;;7.50;99.90;;;;;;5095255;28;20545;-70
2021/11/03 03:23:43;;;;;;;0.00;0.00;;;7.60;99.90;;;;;;5095230;28;20083;-70
2021/11/03 03:26:28;;;;;;;0.17;0.17;;;7.60;99.90;;;;;;5094345;28;20035;-70
2021/11/03 03:29:13;;;;;;;0.20;0.20;;;7.70;99.90;;;;;;5094136;28;20079;-70
2021/11/03 03:31:57;;;;;;;0.00;0.00;;;7.60;99.90;;;;;;5094382;28;20047;-70
2021/11/03 03:34:43;;;;;;;0.70;0.70;;;7.70;99.90;;;;;;5094291;28;20122;-70
2021/11/03 03:37:27;;;;;;;0.00;0.00;;;7.70;99.90;;;;;;5094954;28;20031;-70
2021/11/03 03:40:12;;;;;;;0.10;0.10;;;7.70;99.90;;;;;;5094428;28;20388;-70
2021/11/03 03:42:57;;;;;;;0.00;0.00;;;7.70;99.90;;;;;;5095078;28;20469;-70
2021/11/03 03:45:42;;;;;;;0.10;0.10;;;7.70;99.90;;;;;;5094003;28;20096;-69
2021/11/03 03:48:26;;;;;;;0.55;0.55;;;7.70;99.90;;;;;;5094961;28;20594;-70
2021/11/03 03:51:12;;;;;;;0.30;0.30;;;7.70;99.90;;;;;;5094875;28;20063;-70
2021/11/03 03:53:56;;;;;;;1.17;0.88;;;7.80;99.90;;;;;;5093902;28;20051;-69
2021/11/03 03:56:40;;;;;;;0.08;0.08;;;7.70;99.90;;;;;;5093968;28;20519;-69
2021/11/03 03:59:26;;;;;;;0.03;0.03;;;7.70;99.90;;;;;;5094844;28;20451;-69
2021/11/03 04:02:10;;;;;;;0.13;0.13;;;7.70;99.90;;;;;;5096037;28;20120;-69
2021/11/03 04:04:55;;;;;;;0.05;0.05;;;7.70;99.90;;;;;;5094770;28;20047;-69
2021/11/03 04:07:39;;;;;;;0.10;0.10;;;7.70;99.90;;;;;;5094786;28;20557;-69
2021/11/03 04:10:23;;;;;;;0.00;0.00;;;7.60;99.90;;;;;;5095690;28;20165;-69
2021/11/03 04:13:10;;;;;;;0.40;0.38;;;7.70;99.90;;;;;;5094859;28;20039;-69
2021/11/03 04:15:56;;;;;;;0.00;0.00;;;7.60;99.90;;;;;;5096129;28;20031;-70
2021/11/03 04:18:40;;;;;;;0.10;0.10;;;7.60;99.90;;;;;;5094748;28;20385;-70
2021/11/03 04:21:25;;;;;;;0.10;0.10;;;7.60;99.90;;;;;;5095515;28;20105;-70
2021/11/03 04:24:10;;;;;;;0.00;0.00;;;7.60;99.90;;;;;;5094048;28;20515;-69
2021/11/03 04:26:54;;;;;;;0.63;0.63;;;7.60;99.90;;;;;;5093286;28;20493;-69
2021/11/03 04:29:38;;;;;;;0.08;0.08;;;7.60;99.90;;;;;;5093140;28;20035;-69
2021/11/03 04:32:23;;;;;;;0.00;0.00;;;7.60;99.90;;;;;;5093014;28;20089;-69
2021/11/03 04:35:08;;;;;;;0.00;0.00;;;7.60;99.90;;;;;;5093137;28;20039;-69
2021/11/03 04:37:54;;;;;;;0.00;0.00;;;7.60;99.90;;;;;;5093130;28;20051;-69
2021/11/03 04:40:38;;;;;;;0.10;0.10;;;7.50;99.90;;;;;;5092924;28;20043;-69
2021/11/03 04:43:22;;;;;;;0.00;0.00;;;7.60;99.90;;;;;;5092326;28;20040;-69
2021/11/03 04:46:07;;;;;;;0.13;0.13;;;7.60;99.90;;;;;;5093596;28;20035;-69
2021/11/03 04:48:52;;;;;;;0.40;0.40;;;7.60;99.90;;;;;;5093929;28;20051;-69
2021/11/03 04:51:36;;;;;;;0.00;0.00;;;7.60;99.90;;;;;;5092704;28;20039;-69
2021/11/03 04:54:21;;;;;;;1.38;0.68;;;7.60;99.90;;;;;;5092534;28;20082;-69
2021/11/03 04:57:05;;;;;;;0.10;0.10;;;7.60;99.90;;;;;;5092974;28;20035;-69
2021/11/03 04:59:50;;;;;;;0.00;0.00;;;7.70;99.90;;;;;;5082790;28;20038;-69
2021/11/03 05:02:35;;;;;;;0.05;0.05;;;7.60;99.90;;;;;;5092350;28;20108;-74
2021/11/03 05:05:19;;;;;;;0.00;0.00;;;7.60;99.90;;;;;;5092826;28;20555;-72
2021/11/03 05:08:05;;;;;;;0.20;0.20;;;7.60;99.90;;;;;;5102935;28;20039;-72
2021/11/03 05:10:51;;;;;;;1.25;1.20;;;7.60;99.90;;;;;;5090690;28;20047;-72
2021/11/03 05:13:35;;;;;;;0.28;0.28;;;7.60;99.90;;;;;;5093067;28;20039;-68
2021/11/03 05:16:24;;;;;;;0.00;0.00;;;7.60;99.90;;;;;;5077219;28;20039;-67
2021/11/03 05:19:19;;;;;;;0.00;0.00;;;7.60;99.90;;;;;;5084215;28;20089;-72
2021/11/03 05:22:05;;;;;;;0.10;0.10;;;7.60;99.90;;;;;;5059107;28;20121;-70
2021/11/03 05:24:50;;;;;;;0.00;0.00;;;7.60;99.90;;;;;;5072570;28;20043;-70
2021/11/03 05:27:35;;;;;;;0.43;0.43;;;7.60;99.90;;;;;;5074860;28;20123;-71
2021/11/03 05:30:23;;;;;;;0.00;0.00;;;7.60;99.90;;;;;;5091907;28;20102;-71
2021/11/03 05:33:07;;;;;;;0.00;0.00;;;7.70;99.90;;;;;;5092042;28;20047;-72
2021/11/03 05:35:52;;;;;;;0.00;0.00;;;7.70;99.90;;;;;;5091960;28;20042;-71
2021/11/03 05:38:36;;;;;;;1.95;1.00;;;7.70;99.90;;;;;;5106048;28;20569;-71
2021/11/03 05:41:21;;;;;;;0.00;0.00;;;7.70;99.90;;;;;;5089845;28;20047;-71
2021/11/03 05:44:10;;;;;;;7.55;1.65;;;7.70;99.90;;;;;;5086321;28;20043;-71
2021/11/03 05:46:57;;;;;;;2.70;2.50;;;7.90;99.90;;;;;;5085880;28;20086;-71
2021/11/03 05:49:42;;;;;;;0.73;0.73;;;8.10;99.90;;;;;;5073473;28;20105;-70
2021/11/03 05:52:27;;;;;;;0.00;0.00;;;8.10;99.90;;;;;;5089603;28;20108;-70
2021/11/03 05:55:12;;;;;;;0.25;0.25;;;7.90;99.90;;;;;;5070986;28;20042;-70
2021/11/03 05:57:57;;;;;;;0.30;0.30;;;7.90;99.90;;;;;;5090992;28;20109;-71
2021/11/03 06:00:42;;;;;;;0.10;0.10;;;7.90;99.90;;;;;;5087538;28;20093;-71
2021/11/03 06:03:26;;;;;;;0.00;0.00;;;8.10;99.90;;;;;;5088211;28;20055;-71
2021/11/03 06:06:12;;;;;;;0.10;0.10;;;8.10;99.90;;;;;;5091670;28;20096;-71
2021/11/03 06:08:56;;;;;;;0.00;0.00;;;8.00;99.90;;;;;;5091876;28;20042;-71
2021/11/03 06:11:44;;;;;;;0.30;0.30;;;8.00;99.90;;;;;;5092422;28;20066;-71
2021/11/03 06:14:28;;;;;;;0.05;0.05;;;8.00;99.90;;;;;;5091337;28;20085;-71
2021/11/03 06:17:13;;;;;;;0.00;0.00;;;8.00;99.90;;;;;;5092416;28;20104;-71
2021/11/03 06:19:58;;;;;;;0.00;0.00;;;7.90;99.90;;;;;;5092252;28;20174;-71
2021/11/03 06:22:42;;;;;;;0.00;0.00;;;7.90;99.90;;;;;;5091439;28;20038;-71
2021/11/03 06:25:27;;;;;;;0.00;0.00;;;7.90;99.90;;;;;;5092117;28;20097;-71
2021/11/03 06:28:12;;;;;;;0.00;0.00;;;8.00;99.90;;;;;;5084037;28;20048;-71
2021/11/03 06:30:57;;;;;;;0.00;0.00;;;7.90;99.90;;;;;;5072097;28;20106;-71
2021/11/03 06:33:41;;;;;;;0.30;0.30;;;7.90;99.90;;;;;;5071741;28;20039;-71
2021/11/03 06:36:26;;;;;;;0.00;0.00;;;8.00;99.90;;;;;;5072042;28;20036;-71
2021/11/03 06:39:11;;;;;;;0.10;0.10;;;8.20;99.90;;;;;;5072161;28;20103;-71
2021/11/03 06:41:55;;;;;;;0.00;0.00;;;8.30;99.90;;;;;;5071975;28;20044;-71
2021/11/03 06:44:39;;;;;;;0.00;0.00;;;8.30;99.90;;;;;;5071275;28;20149;-70
2021/11/03 06:47:24;;;;;;;0.10;0.10;;;8.30;99.90;;;;;;5071614;28;20040;-70
2021/11/03 06:50:13;;;;;;;5.78;0.75;;;8.30;99.90;;;;;;5070592;28;20048;-70
2021/11/03 06:53:01;;;;;;;0.00;0.00;;;8.30;99.90;;;;;;5070959;28;20082;-70
2021/11/03 06:55:47;;;;;;;0.00;0.00;;;8.30;99.90;;;;;;5071710;28;20047;-69
2021/11/03 06:58:33;;;;;;;0.00;0.00;;;8.30;99.90;;;;;;5071760;28;20044;-69
2021/11/03 07:01:17;;;;;;;0.00;0.00;;;8.40;99.90;;;;;;5075823;28;20217;-69
2021/11/03 07:04:03;;;;;;;0.00;0.00;;;8.40;99.90;;;;;;5084950;28;20035;-69
2021/11/03 07:06:48;;;;;;;0.03;0.03;;;8.40;99.90;;;;;;5095734;28;20038;-69
2021/11/03 07:09:33;;;;;;;0.00;0.00;;;8.30;99.90;;;;;;5080367;28;20084;-69
2021/11/03 07:12:18;;;;;;;0.00;0.00;;;8.40;99.90;;;;;;5094005;28;20089;-69
2021/11/03 07:15:02;;;;;;;0.00;0.00;;;8.40;99.90;;;;;;5093641;28;20519;-71
2021/11/03 07:17:47;;;;;;;0.00;0.00;;;8.40;99.90;;;;;;5073717;28;20515;-69
2021/11/03 07:20:33;;;;;;;0.17;0.17;;;8.40;99.90;;;;;;5073985;28;20052;-69
2021/11/03 07:23:21;;;;;;;0.00;0.00;;;8.40;99.90;;;;;;5074906;28;20462;-69
2021/11/03 07:26:06;;;;;;;0.00;0.00;;;8.40;99.90;;;;;;5075102;28;20067;-69
2021/11/03 07:28:51;;;;;;;0.00;0.00;;;8.40;99.90;;;;;;5075253;28;20063;-69
2021/11/03 07:31:36;;;;;;;0.00;0.00;;;8.40;99.90;;;;;;5074805;28;20462;-68
2021/11/03 07:34:20;;;;;;;0.00;0.00;;;8.40;99.90;;;;;;5088488;28;20038;-69
2021/11/03 07:37:06;;;;;;;0.00;0.00;;;8.30;99.90;;;;;;5074894;28;20047;-69
2021/11/03 07:39:51;;;;;;;0.00;0.00;;;8.40;99.90;;;;;;5074864;28;20396;-68
2021/11/03 07:42:35;;;;;;;0.00;0.00;;;8.30;99.90;;;;;;5074557;28;20079;-69
2021/11/03 07:45:20;;;;;;;0.00;0.00;;;8.30;99.90;;;;;;5073859;28;20539;-72
2021/11/03 07:48:06;;;;;;;0.00;0.00;;;8.40;99.90;;;;;;5074785;28;20040;-71
2021/11/03 07:50:59;;;;;;;0.00;0.00;;;8.40;99.90;;;;;;5074806;28;20071;-71
2021/11/03 07:53:45;;;;;;;0.00;0.00;;;8.40;99.90;;;;;;5074447;28;20078;-71
2021/11/03 07:56:36;;;;;;;0.10;0.10;;;8.40;99.90;;;;;;5074957;28;20043;-70
2021/11/03 07:59:22;;;;;;;0.00;0.00;;;8.40;99.90;;;;;;5073838;28;20488;-70
2021/11/03 08:02:08;;;;;;;0.00;0.00;;;8.30;99.90;;;;;;5074459;28;20051;-70
2021/11/03 08:04:52;;;;;;;0.10;0.10;;;8.30;99.90;;;;;;5073217;28;20039;-70
2021/11/03 08:07:37;;;;;;;0.15;0.15;;;8.30;99.90;;;;;;5074025;28;20101;-70
2021/11/03 08:10:23;;;;;;;0.00;0.00;;;8.30;99.90;;;;;;5074335;28;20443;-70
2021/11/03 08:13:15;;;;;;;0.10;0.10;;;8.30;99.90;;;;;;5073181;28;20075;-70
2021/11/03 08:16:03;;;;;;;;;;;8.30;99.90;;;;;;5059879;28;20046;-70
2021/11/03 08:18:47;;;;;;;0.00;0.00;;;8.30;99.90;;;;;;5079728;28;19922;-69
2021/11/03 08:21:32;;;;;;;0.00;0.00;;;8.30;99.90;;;;;;5072882;28;20051;-69
2021/11/03 08:24:16;;;;;;;0.00;0.00;;;8.30;99.90;;;;;;5073794;28;20086;-69
2021/11/03 08:27:01;;;;;;;0.00;0.00;;;8.30;99.90;;;;;;5073070;28;20043;-69
2021/11/03 08:29:46;;;;;;;0.00;0.00;;;8.40;99.90;;;;;;5074059;28;20113;-69
2021/11/03 08:32:36;;;;;;;0.20;0.20;;;8.40;99.90;;;;;;5073734;28;20540;-69
2021/11/03 08:35:25;;;;;;;0.00;0.00;;;8.40;99.90;;;;;;5072837;28;20520;-66
2021/11/03 08:38:16;;;;;;;0.00;0.00;;;8.40;99.90;;;;;;5072787;28;20036;-70
2021/11/03 08:41:02;;;;;;;;;;;8.40;99.90;;;;;;5073933;28;20115;-69
2021/11/03 08:43:48;;;;;;;0.08;0.08;;;8.40;99.90;;;;;;5079017;28;19973;-69
2021/11/03 08:46:33;;;;;;;4.38;0.65;;;8.40;99.90;;;;;;5072313;28;20394;-69
2021/11/03 08:49:17;;;;;;;0.15;0.15;;;8.40;99.90;;;;;;5073539;28;20127;-69
2021/11/03 08:52:04;;;;;;;0.00;0.00;;;8.50;99.90;;;;;;5073411;28;20109;-70
2021/11/03 08:54:49;;;;;;;0.00;0.00;;;8.50;99.90;;;;;;5073382;28;20630;-69
2021/11/03 08:57:36;;;;;;;0.40;0.40;;;8.60;99.90;;;;;;5073327;28;20085;-69
2021/11/03 09:00:25;;;;;;;0.00;0.00;;;8.60;99.90;;;;;;5072472;28;20047;-69
2021/11/03 09:03:10;;;;;;;0.00;0.00;;;8.70;99.90;;;;;;5072434;28;20182;-70
2021/11/03 09:05:55;;;;;;;0.10;0.10;;;8.70;99.90;;;;;;5072175;28;20098;-70
2021/11/03 09:08:46;;;;;;;0.38;0.38;;;8.70;99.90;;;;;;5093020;28;20031;-70
2021/11/03 09:11:32;;;;;;;0.10;0.10;;;8.70;99.90;;;;;;5093338;28;20031;-69
2021/11/03 09:14:21;;;;;;;0.00;0.00;;;8.70;99.90;;;;;;5092237;28;20055;-70
2021/11/03 09:17:06;;;;;;;0.40;0.28;;;8.70;99.90;;;;;;5093335;28;20039;-70
2021/11/03 09:19:50;;;;;;;0.00;0.00;;;8.70;99.90;;;;;;5092796;28;20055;-70
2021/11/03 09:22:37;;;;;;;0.10;0.10;;;8.80;99.90;;;;;;5093150;28;20070;-70
2021/11/03 09:25:23;;;;;;;0.00;0.00;;;8.70;99.90;;;;;;5093184;28;20074;-69
2021/11/03 09:28:08;;;;;;;0.00;0.00;;;8.80;99.90;;;;;;5091869;28;20140;-70
2021/11/03 09:30:54;;;;;;;0.00;0.00;;;8.80;99.90;;;;;;5092928;28;20662;-70
2021/11/03 09:33:42;;;;;;;0.00;0.00;;;8.90;99.90;;;;;;5091733;28;20039;-70
2021/11/03 09:36:28;;;;;;;1.20;1.10;;;8.90;99.90;;;;;;5092340;28;20085;-70
2021/11/03 09:39:13;;;;;;;0.00;0.00;;;8.90;99.90;;;;;;5092908;28;20391;-70
2021/11/03 09:41:57;;;;;;;0.00;0.00;;;8.90;99.90;;;;;;5091553;28;20541;-69
2021/11/03 09:44:44;;;;;;;0.00;0.00;;;8.90;99.90;;;;;;5092248;28;20039;-70
2021/11/03 09:47:36;;;;;;;0.00;0.00;;;8.90;99.90;;;;;;5092129;28;20039;-70
2021/11/03 09:50:24;;;;;;;0.05;0.05;;;8.90;99.90;;;;;;5092680;28;20195;-69
2021/11/03 09:53:23;;;;;;;1.08;1.00;;;8.90;99.90;;;;;;5091663;28;20553;-69
2021/11/03 09:56:15;;;;;;;0.00;0.00;;;8.80;99.90;;;;;;5091636;28;20058;-69
2021/11/03 09:59:39;;;;;;;0.00;0.00;;;8.90;99.90;;;;;;5092556;28;20047;-69
2021/11/03 10:02:35;;;;;;;0.95;0.50;;;8.80;99.90;;;;;;5092592;28;20500;-69
2021/11/03 10:05:43;;;;;;;3.80;1.40;;;8.80;99.90;;;;;;5091528;28;20074;-70
2021/11/03 10:08:31;;;;;;;0.28;0.28;;;8.80;99.90;;;;;;5093023;28;20452;-70
2021/11/03 10:11:31;;;;;;;0.00;0.00;;;8.80;99.90;;;;;;5091701;28;20051;-70
2021/11/03 10:14:16;;;;;;;0.00;0.00;;;8.80;99.90;;;;;;5092417;28;20173;-70
2021/11/03 10:17:27;;;;;;;0.00;0.00;;;8.90;99.90;;;;;;5092443;28;20043;-70
2021/11/03 10:20:40;;;;;;;0.00;0.00;;;8.90;99.90;;;;;;5092394;28;20110;-70
2021/11/03 10:23:28;;;;;;;0.00;0.00;;;8.90;99.90;;;;;;5078286;28;20042;-71
2021/11/03 10:26:13;;;;;;;0.10;0.10;;;9.00;99.90;;;;;;5092453;28;20427;-70
2021/11/03 10:29:24;;;;;;;0.10;0.10;;;9.00;99.90;;;;;;5092201;28;20047;-70
2021/11/03 10:32:08;;;;;;;0.00;0.00;;;9.10;99.90;;;;;;5092439;28;20393;-70
2021/11/03 10:35:38;;;;;;;0.20;0.20;;;9.10;99.90;;;;;;5092210;28;20532;-70
2021/11/03 10:38:26;;;;;;;0.05;0.05;;;9.10;99.90;;;;;;5092387;28;20508;-70
2021/11/03 10:41:34;;;;;;;0.05;0.05;;;9.10;99.90;;;;;;5095446;28;20157;-70
2021/11/03 10:44:24;;;;;;;0.00;0.00;;;9.10;99.90;;;;;;5082121;28;20038;-70
2021/11/03 10:47:18;;;;;;;2.60;1.73;;;9.20;99.90;;;;;;5096344;28;20396;-70
2021/11/03 10:50:23;;;;;;;0.65;0.65;;;9.20;99.90;;;;;;5096118;28;20078;-70
2021/11/03 10:53:13;;;;;;;0.10;0.10;;;9.30;99.90;;;;;;5094984;28;20050;-70
2021/11/03 10:56:17;;;;;;;0.10;0.10;;;9.40;99.90;;;;;;5102596;28;20164;-70
2021/11/03 10:59:16;;;;;;;0.20;0.20;;;9.40;99.90;;;;;;5102149;28;20121;-70
2021/11/03 11:02:29;;;;;;;0.00;0.00;;;9.50;99.90;;;;;;5102183;28;21480;-70
2021/11/03 11:05:20;;;;;;;0.10;0.10;;;9.50;99.90;;;;;;5088458;28;20043;-70
2021/11/03 11:08:28;;;;;;;0.98;0.65;;;9.60;99.90;;;;;;5074716;28;20047;-70
2021/11/03 11:11:18;;;;;;;0.20;0.20;;;9.60;99.90;;;;;;5074440;28;20055;-70
2021/11/03 11:14:17;;;;;;;0.00;0.00;;;9.60;99.90;;;;;;5088828;28;20119;-69
2021/11/03 11:17:37;;;;;;;0.22;0.22;;;9.60;99.90;;;;;;5088738;28;20370;-69
2021/11/03 11:20:43;;;;;;;0.00;0.00;;;9.60;99.90;;;;;;5077145;28;20106;-69
2021/11/03 11:23:39;;;;;;;0.00;0.00;;;9.50;99.90;;;;;;5074201;28;20098;-70
2021/11/03 11:26:38;;;;;;;0.00;0.00;;;9.50;99.90;;;;;;5075339;28;20051;-70
2021/11/03 11:29:50;;;;;;;0.30;0.25;;;9.50;99.90;;;;;;5074122;28;20074;-70
2021/11/03 11:33:01;;;;;;;0.00;0.00;;;9.40;99.90;;;;;;5075207;28;20397;-70
2021/11/03 11:36:11;;;;;;;0.00;0.00;;;9.40;99.90;;;;;;5074813;28;20048;-70
2021/11/03 11:39:47;;;;;;;0.00;0.00;;;9.30;99.90;;;;;;5074563;28;20048;-70
2021/11/03 11:42:52;;;;;;;0.20;0.20;;;9.30;99.90;;;;;;5058838;28;20040;-70
2021/11/03 11:45:37;;;;;;;0.00;0.00;;;9.50;99.90;;;;;;5074107;28;20052;-70
2021/11/03 11:48:31;;;;;;;0.00;0.00;;;9.40;99.90;;;;;;5074807;28;20036;-70
2021/11/03 11:51:24;;;;;;;1.27;0.90;;;9.40;99.90;;;;;;5073801;28;20090;-70
2021/11/03 11:54:31;;;;;;;0.00;0.00;;;9.40;99.90;;;;;;5073589;28;20035;-70
2021/11/03 11:57:15;;;;;;;0.00;0.00;;;9.40;99.90;;;;;;5073318;28;20085;-70
2021/11/03 12:00:17;;;;;;;0.08;0.08;;;9.40;99.90;;;;;;5074336;28;20090;-70
2021/11/03 12:03:16;;;;;;;0.15;0.15;;;9.40;99.90;;;;;;5074307;28;20132;-70
2021/11/03 12:06:09;;;;;;;1.25;1.17;;;9.40;99.90;;;;;;5073142;28;20120;-70
2021/11/03 12:09:19;;;;;;;0.90;0.90;;;9.40;99.90;;;;;;5074246;28;20044;-70
2021/11/03 12:12:06;;;;;;;0.00;0.00;;;9.40;99.90;;;;;;5073944;28;20044;-71
2021/11/03 12:15:01;;;;;;;0.13;0.13;;;9.40;99.90;;;;;;5074003;28;20127;-70
2021/11/03 12:17:52;;;;;;;1.45;0.85;;;9.40;99.90;;;;;;5073840;28;20126;-70
2021/11/03 12:20:42;;;;;;;0.28;0.28;;;9.40;99.90;;;;;;5073659;28;20083;-70
2021/11/03 12:24:15;;;;;;;0.20;0.20;;;9.40;99.90;;;;;;5074039;28;20040;-70
2021/11/03 12:27:21;;;;;;;0.10;0.10;;;9.50;99.90;;;;;;5073977;28;20421;-70
2021/11/03 12:30:09;;;;;;;0.10;0.10;;;9.40;99.90;;;;;;5073850;28;20106;-70
2021/11/03 12:33:05;;;;;;;6.93;1.00;;;9.50;99.90;;;;;;5073709;28;20039;-69
2021/11/03 12:36:11;;;;;;;0.00;0.00;;;9.40;99.90;;;;;;5073662;28;20036;-69
2021/11/03 12:39:00;;;;;;;0.00;0.00;;;9.50;99.90;;;;;;5072729;28;20047;-69
2021/11/03 12:41:50;;;;;;;0.00;0.00;;;9.50;99.90;;;;;;5072541;28;20086;-69
2021/11/03 12:44:41;;;;;;;0.28;0.28;;;9.50;99.90;;;;;;5072420;28;20039;-69
2021/11/03 12:47:35;;;;;;;;;;;9.50;99.90;;;;;;5072957;28;20121;-70
2021/11/03 12:50:27;;;;;;;0.00;0.00;;;9.50;99.90;;;;;;5080418;28;20393;-69
2021/11/03 12:53:34;;;;;;;0.00;0.00;;;9.40;99.90;;;;;;5080236;28;20562;-70
2021/11/03 12:56:26;;;;;;;0.00;0.00;;;9.40;99.90;;;;;;5080246;28;20048;-70
2021/11/03 12:59:23;;;;;;;0.20;0.20;;;9.30;99.90;;;;;;5073393;28;20442;-70
2021/11/03 13:02:18;;;;;;;0.00;0.00;;;9.40;99.90;;;;;;5072903;28;20043;-70
2021/11/03 13:05:31;;;;;;;0.10;0.10;;;9.30;99.90;;;;;;5074524;28;20051;-70
2021/11/03 13:08:25;;;;;;;0.00;0.00;;;9.30;99.90;;;;;;5073186;28;20124;-71
2021/11/03 13:11:24;;;;;;;0.00;0.00;;;9.30;99.90;;;;;;5073201;28;20036;-70
2021/11/03 13:14:24;;;;;;;0.00;0.00;;;9.30;99.90;;;;;;5073334;28;20047;-70
2021/11/03 13:17:27;;;;;;;0.20;0.20;;;9.30;99.90;;;;;;5071865;28;20070;-70
2021/11/03 13:20:56;;;;;;;0.00;0.00;;;9.40;99.90;;;;;;5072611;28;20047;-70
2021/11/03 13:23:43;;;;;;;0.10;0.10;;;9.40;99.90;;;;;;5065656;28;20039;-70
2021/11/03 13:26:35;;;;;;;0.00;0.00;;;9.40;99.90;;;;;;5078594;28;20043;-70
2021/11/03 13:29:26;;;;;;;0.00;0.00;;;9.40;99.90;;;;;;5071659;28;20089;-70
2021/11/03 13:32:20;;;;;;;0.00;0.00;;;9.40;99.90;;;;;;5072772;28;20406;-70
2021/11/03 13:35:07;;;;;;;0.03;0.03;;;9.40;99.90;;;;;;5071721;28;20128;-70
2021/11/03 13:38:00;;;;;;;0.32;0.32;;;9.40;99.90;;;;;;5072533;28;20085;-70
2021/11/03 13:40:54;;;;;;;0.00;0.00;;;9.40;99.90;;;;;;5072820;28;20566;-70
2021/11/03 13:43:39;;;;;;;0.88;0.38;;;9.40;99.90;;;;;;5072328;28;20047;-70
2021/11/03 13:46:27;;;;;;;0.10;0.10;;;9.40;99.90;;;;;;5071569;28;20097;-70
2021/11/03 13:49:17;;;;;;;0.00;0.00;;;9.40;99.90;;;;;;5072906;28;20098;-70
2021/11/03 13:52:23;;;;;;;0.00;0.00;;;9.30;99.90;;;;;;5072460;28;20512;-70
2021/11/03 13:55:17;;;;;;;1.60;1.50;;;9.40;99.90;;;;;;5072325;28;20136;-70
2021/11/03 13:58:57;;;;;;;0.20;0.20;;;9.40;99.90;;;;;;5072341;28;20047;-70
2021/11/03 14:02:00;;;;;;;0.10;0.10;;;9.30;99.90;;;;;;5067257;28;20040;-70
2021/11/03 14:04:49;;;;;;;0.50;0.50;;;9.30;99.90;;;;;;5071339;28;20563;-70
2021/11/03 14:07:41;;;;;;;0.00;0.00;;;9.30;99.90;;;;;;5072340;28;20074;-70
2021/11/03 14:10:26;;;;;;;0.88;0.65;;;9.30;99.90;;;;;;5072627;28;20551;-70
2021/11/03 14:13:11;;;;;;;2.40;1.55;;;9.30;99.90;;;;;;5072057;28;20055;-70
2021/11/03 14:16:18;;;;;;;0.22;0.22;;;9.30;99.90;;;;;;5074964;28;20043;-70
2021/11/03 14:19:42;;;;;;;0.00;0.00;;;9.40;99.90;;;;;;5082696;28;20441;-70
2021/11/03 14:22:32;;;;;;;0.00;0.00;;;9.40;99.90;;;;;;5078043;28;20066;-70
2021/11/03 14:25:22;;;;;;;0.22;0.22;;;9.40;99.90;;;;;;5076122;28;20059;-71
2021/11/03 14:28:15;;;;;;;2.63;0.75;;;9.40;99.90;;;;;;5075993;28;20043;-70
2021/11/03 14:31:26;;;;;;;0.00;0.00;;;9.40;99.90;;;;;;5076483;28;20050;-70
2021/11/03 14:34:34;;;;;;;0.08;0.08;;;9.40;99.90;;;;;;5075186;28;20036;-70
2021/11/03 14:37:19;;;;;;;0.05;0.05;;;9.50;99.90;;;;;;5076040;28;20094;-70
2021/11/03 14:40:04;;;;;;;0.47;0.30;;;9.40;99.90;;;;;;5076010;28;20547;-70
2021/11/03 14:42:49;;;;;;;0.40;0.40;;;9.50;99.90;;;;;;5075939;28;20047;-70
2021/11/03 14:45:33;;;;;;;0.17;0.17;;;9.40;99.90;;;;;;5076226;28;20389;-70
2021/11/03 14:48:28;;;;;;;0.00;0.00;;;9.40;99.90;;;;;;5074883;28;20090;-70
2021/11/03 14:51:12;;;;;;;0.30;0.30;;;9.40;99.90;;;;;;5074683;28;20078;-70
2021/11/03 14:53:57;;;;;;;0.90;0.90;;;9.50;99.90;;;;;;5075569;28;20464;-70
2021/11/03 14:56:42;;;;;;;0.00;0.00;;;9.50;99.90;;;;;;5075784;28;20047;-70